Time;durP1;ratioP1;P1;durP2;ratioP2;P2;SDS_P1;SDS_P2;PMS_P1;PMS_P2;Temp;Humidity;BMP_temperature;BMP_pressure;BME280_temperature;BME280_humidity;BME280_pressure;Samples;Min_cycle;Max_cycle;Signal;HPM_P1;HPM_P2
2023/06/19 00:01:47;;;;;;;6.45;5.82;;;;;;;26.55;53.63;101043.47;5094879;28;20075;-57
2023/06/19 00:04:15;;;;;;;9.77;6.05;;;;;;;26.54;53.57;101042.63;5095614;28;20052;-57
2023/06/19 00:06:42;;;;;;;6.43;5.82;;;;;;;26.55;53.51;101046.19;5095610;28;20044;-57
2023/06/19 00:09:10;;;;;;;6.35;5.25;;;;;;;26.54;53.56;101039.94;5095781;28;20044;-58
2023/06/19 00:11:37;;;;;;;6.90;6.10;;;;;;;26.55;53.69;101044.31;5095805;28;20048;-47
2023/06/19 00:14:04;;;;;;;7.03;5.72;;;;;;;26.54;53.64;101039.94;5095768;28;20051;-46
2023/06/19 00:16:32;;;;;;;7.28;6.03;;;;;;;26.54;53.64;101050.78;5095677;28;20066;-47
2023/06/19 00:19:00;;;;;;;6.63;5.15;;;;;;;26.54;53.76;101048.06;5095606;28;20044;-50
2023/06/19 00:21:27;;;;;;;6.72;5.97;;;;;;;26.53;53.38;101057.22;5095916;28;20040;-47
2023/06/19 00:23:55;;;;;;;6.53;5.82;;;;;;;26.55;53.57;101054.34;5095665;28;20411;-48
2023/06/19 00:26:23;;;;;;;6.82;5.65;;;;;;;26.54;53.57;101058.09;5095498;28;20040;-48
2023/06/19 00:28:53;;;;;;;5.88;5.10;;;;;;;26.54;53.47;101061.66;5095160;28;20376;-49
2023/06/19 00:31:21;;;;;;;6.30;5.70;;;;;;;26.54;53.41;101052.66;5093885;28;20066;-57
2023/06/19 00:33:50;;;;;;;6.80;5.82;;;;;;;26.53;53.49;101069.94;5095722;28;20408;-58
2023/06/19 00:36:21;;;;;;;6.10;5.50;;;;;;;26.54;53.54;101068.94;5095300;28;20055;-57
2023/06/19 00:38:48;;;;;;;5.88;5.28;;;;;;;26.53;53.18;101067.22;5095383;28;20044;-56
2023/06/19 00:41:16;;;;;;;7.43;5.60;;;;;;;26.53;53.36;101056.38;5095315;28;20051;-56
2023/06/19 00:43:44;;;;;;;6.80;5.47;;;;;;;26.52;53.17;101063.66;5095417;28;20056;-57
2023/06/19 00:46:12;;;;;;;6.22;5.63;;;;;;;26.52;53.12;101054.69;5095246;28;20047;-56
2023/06/19 00:48:39;;;;;;;6.00;5.40;;;;;;;26.52;53.16;101060.97;5094671;28;20040;-56
2023/06/19 00:51:07;;;;;;;6.82;5.93;;;;;;;26.54;52.95;101063.53;5095140;28;20043;-46
2023/06/19 00:53:35;;;;;;;8.10;5.93;;;;;;;26.52;53.06;101066.38;5095221;28;20051;-46
2023/06/19 00:56:03;;;;;;;6.90;5.80;;;;;;;26.53;52.78;101067.22;5094873;28;20044;-47
2023/06/19 00:58:31;;;;;;;7.07;6.13;;;;;;;26.51;52.76;101072.84;5094854;28;20036;-46
2023/06/19 01:00:58;;;;;;;6.53;5.82;;;;;;;26.52;52.69;101079.13;5093579;28;20048;-56
2023/06/19 01:03:36;;;;;;;6.32;5.65;;;;;;;26.51;52.61;101078.28;5094366;28;20067;-57
2023/06/19 01:06:14;;;;;;;6.18;5.57;;;;;;;26.52;52.35;101076.41;5094505;28;20047;-56
2023/06/19 01:09:05;;;;;;;6.88;5.93;;;;;;;26.50;52.33;101073.88;5093129;28;20052;-56
2023/06/19 01:11:38;;;;;;;7.82;5.93;;;;;;;26.51;52.21;101072.00;5094613;28;20044;-56
2023/06/19 01:14:18;;;;;;;6.95;5.72;;;;;;;26.50;52.19;101073.88;5094309;28;20075;-57
2023/06/19 01:16:47;;;;;;;7.53;6.25;;;;;;;26.50;51.87;101067.59;5094702;28;20395;-56
2023/06/19 01:19:19;;;;;;;7.20;5.72;;;;;;;26.51;52.13;101072.00;5094041;28;20048;-57
2023/06/19 01:21:50;;;;;;;6.43;5.82;;;;;;;26.50;52.02;101076.59;5094445;28;20055;-47
2023/06/19 01:24:17;;;;;;;6.93;6.28;;;;;;;26.50;52.25;101078.47;5093280;28;20036;-47
2023/06/19 01:26:45;;;;;;;6.88;6.25;;;;;;;26.49;51.65;101077.59;5094409;28;20039;-48
2023/06/19 01:29:15;;;;;;;6.40;5.80;;;;;;;26.50;51.56;101087.44;5092829;28;20048;-47
2023/06/19 01:31:58;;;;;;;6.45;5.85;;;;;;;26.50;51.73;101079.31;5094099;28;20052;-56
2023/06/19 01:34:28;;;;;;;6.72;5.65;;;;;;;26.50;51.48;101089.31;5094294;28;20052;-56
2023/06/19 01:36:57;;;;;;;6.28;5.63;;;;;;;26.50;51.37;101083.91;5094424;28;20048;-56
2023/06/19 01:39:25;;;;;;;6.80;6.20;;;;;;;26.48;51.46;101081.31;5094052;28;20492;-57
2023/06/19 01:41:55;;;;;;;6.63;5.55;;;;;;;26.50;51.48;101083.91;5094175;28;20051;-47
2023/06/19 01:44:24;;;;;;;8.05;5.78;;;;;;;26.49;51.23;101074.88;5094158;28;20048;-46
2023/06/19 01:46:51;;;;;;;6.20;5.60;;;;;;;26.48;51.09;101081.31;5094148;28;20360;-46
2023/06/19 01:49:19;;;;;;;6.47;5.82;;;;;;;26.48;51.14;101078.63;5092651;28;20044;-47
2023/06/19 01:51:47;;;;;;;9.50;6.85;;;;;;;26.47;51.09;101076.94;5094114;28;20047;-56
2023/06/19 01:54:14;;;;;;;6.60;5.88;;;;;;;26.47;51.11;101079.66;5093077;28;20059;-56
2023/06/19 01:56:42;;;;;;;6.78;5.88;;;;;;;26.48;50.92;101080.50;5092962;28;20054;-56
2023/06/19 01:59:09;;;;;;;7.47;6.20;;;;;;;26.47;51.00;101079.66;5092311;28;20055;-56
2023/06/19 02:01:36;;;;;;;6.90;5.70;;;;;;;26.48;51.24;101088.63;5092619;28;20048;-47
2023/06/19 02:04:04;;;;;;;7.47;5.90;;;;;;;26.48;51.28;101083.19;5092752;28;20044;-47
2023/06/19 02:06:31;;;;;;;7.25;5.90;;;;;;;26.49;51.86;101082.16;5092560;28;20048;-47
2023/06/19 02:08:59;;;;;;;6.80;6.10;;;;;;;26.48;51.51;101091.34;5092480;28;20052;-46
2023/06/19 02:11:26;;;;;;;6.20;5.25;;;;;;;26.49;51.45;101080.31;5093284;28;20063;-47
2023/06/19 02:13:54;;;;;;;6.03;5.22;;;;;;;26.49;51.71;101083.00;5093579;28;20056;-46
2023/06/19 02:16:22;;;;;;;7.35;6.65;;;;;;;26.49;51.71;101095.75;5092276;28;20055;-46
2023/06/19 02:18:49;;;;;;;7.25;6.20;;;;;;;26.49;51.64;101104.75;5093142;28;20040;-47
2023/06/19 02:21:17;;;;;;;6.57;5.90;;;;;;;26.49;51.83;101102.03;5093583;28;20056;-56
2023/06/19 02:23:44;;;;;;;6.70;5.82;;;;;;;26.50;51.85;101109.16;5092168;28;20048;-56
2023/06/19 02:26:11;;;;;;;6.57;5.85;;;;;;;26.50;51.75;101111.88;5092291;28;20048;-56
2023/06/19 02:28:39;;;;;;;7.03;6.07;;;;;;;26.50;51.74;101111.03;5093050;28;20048;-56
2023/06/19 02:31:06;;;;;;;6.10;5.50;;;;;;;26.51;51.73;101118.16;5092456;28;20052;-56
2023/06/19 02:33:33;;;;;;;6.70;6.03;;;;;;;26.49;51.76;101104.75;5092286;28;20048;-56
2023/06/19 02:36:01;;;;;;;6.63;5.95;;;;;;;26.51;51.91;101107.31;5093571;28;20488;-58
2023/06/19 02:38:29;;;;;;;6.50;5.88;;;;;;;26.50;51.85;101109.16;5092459;28;20044;-47
2023/06/19 02:41:02;;;;;;;7.07;6.28;;;;;;;26.50;51.97;101111.03;5093320;28;20055;-56
2023/06/19 02:43:30;;;;;;;7.68;5.88;;;;;;;26.50;51.92;101111.88;5091933;28;20059;-56
2023/06/19 02:45:57;;;;;;;6.68;5.72;;;;;;;26.50;51.92;101117.31;5092093;28;20055;-56
2023/06/19 02:48:24;;;;;;;6.60;5.90;;;;;;;26.50;51.84;101119.19;5093235;28;20056;-56
2023/06/19 02:50:53;;;;;;;7.13;5.90;;;;;;;26.49;51.87;101118.31;5092052;28;20527;-56
2023/06/19 02:53:20;;;;;;;7.95;5.82;;;;;;;26.49;51.54;101120.19;5093038;28;20048;-56
2023/06/19 02:55:48;;;;;;;6.25;5.43;;;;;;;26.49;51.54;101112.88;5093048;28;20048;-56
2023/06/19 02:58:15;;;;;;;7.25;6.00;;;;;;;26.50;51.29;101116.47;5091648;28;20044;-56
2023/06/19 03:00:43;;;;;;;5.95;5.32;;;;;;;26.49;51.39;101112.03;5093115;28;20051;-47
2023/06/19 03:03:11;;;;;;;6.60;5.25;;;;;;;26.48;51.28;101121.22;5093389;28;20048;-47
2023/06/19 03:05:38;;;;;;;6.28;5.60;;;;;;;26.48;51.22;101121.22;5092936;28;20043;-47
2023/06/19 03:08:06;;;;;;;5.40;4.90;;;;;;;26.47;51.23;101117.66;5091479;28;20059;-47
2023/06/19 03:10:35;;;;;;;6.18;5.57;;;;;;;26.47;50.96;101122.25;5092715;28;20051;-47
2023/06/19 03:13:03;;;;;;;5.47;4.82;;;;;;;26.47;51.07;101120.38;5096278;28;20051;-56
2023/06/19 03:15:32;;;;;;;8.77;5.90;;;;;;;26.46;50.97;101120.56;5095537;28;20048;-56
2023/06/19 03:18:03;;;;;;;6.10;5.50;;;;;;;26.47;51.07;101122.25;5095719;28;20423;-56
2023/06/19 03:20:30;;;;;;;5.75;4.85;;;;;;;26.46;50.95;101115.97;5096106;28;20055;-56
2023/06/19 03:23:01;;;;;;;7.50;4.82;;;;;;;26.46;50.99;101124.13;5095868;28;20063;-46
2023/06/19 03:25:34;;;;;;;5.40;4.90;;;;;;;26.46;50.88;101115.97;5096450;28;20052;-46
2023/06/19 03:28:02;;;;;;;6.40;5.22;;;;;;;26.46;50.78;101115.13;5096419;28;20064;-47
2023/06/19 03:30:30;;;;;;;5.53;4.90;;;;;;;26.46;50.83;101117.84;5095637;28;20423;-47
2023/06/19 03:32:58;;;;;;;6.13;5.00;;;;;;;26.45;50.97;101118.84;5095090;28;20671;-46
2023/06/19 03:35:40;;;;;;;5.93;5.32;;;;;;;26.45;50.78;101113.41;5095344;28;20052;-47
2023/06/19 03:38:12;;;;;;;5.82;5.22;;;;;;;26.44;50.67;101112.53;5095532;28;20051;-46
2023/06/19 03:40:40;;;;;;;5.68;4.85;;;;;;;26.44;50.73;101117.97;5096563;28;20385;-50
2023/06/19 03:43:11;;;;;;;5.50;4.93;;;;;;;26.44;50.89;101117.97;5095838;28;20079;-46
2023/06/19 03:45:39;;;;;;;5.53;5.03;;;;;;;26.45;50.88;101118.84;5096366;28;20048;-48
2023/06/19 03:48:06;;;;;;;6.57;4.97;;;;;;;26.44;50.86;101119.81;5095331;28;20055;-46
2023/06/19 03:50:34;;;;;;;5.97;4.68;;;;;;;26.44;50.84;101111.69;5096513;28;20040;-46
2023/06/19 03:53:01;;;;;;;5.72;5.22;;;;;;;26.44;50.74;101119.81;5095172;28;20055;-47
2023/06/19 03:55:29;;;;;;;5.82;5.18;;;;;;;26.44;50.73;101120.66;5095024;28;20071;-46
2023/06/19 03:57:56;;;;;;;5.55;4.88;;;;;;;26.43;50.75;101124.41;5096095;28;20044;-46
2023/06/19 04:00:23;;;;;;;5.90;5.30;;;;;;;26.43;50.71;101124.41;5095243;28;20040;-48
2023/06/19 04:02:51;;;;;;;6.40;5.72;;;;;;;26.43;50.70;101121.69;5095207;28;20060;-56
2023/06/19 04:05:19;;;;;;;5.95;5.18;;;;;;;26.43;50.70;101126.28;5095367;28;20052;-57
2023/06/19 04:07:47;;;;;;;7.30;5.72;;;;;;;26.42;50.96;101125.44;5096177;28;20052;-56
2023/06/19 04:10:14;;;;;;;6.82;5.13;;;;;;;26.43;50.54;101123.56;5095738;28;20044;-56
2023/06/19 04:12:42;;;;;;;6.55;5.82;;;;;;;26.42;50.66;101133.59;5094770;28;20058;-56
2023/06/19 04:15:10;;;;;;;5.80;5.20;;;;;;;26.43;50.61;101124.41;5095758;28;20059;-56
2023/06/19 04:17:37;;;;;;;6.03;5.43;;;;;;;26.42;50.70;101125.44;5094600;28;20365;-56
2023/06/19 04:20:11;;;;;;;5.43;4.93;;;;;;;26.41;50.80;101123.72;5094897;28;20047;-56
2023/06/19 04:22:40;;;;;;;6.03;5.20;;;;;;;26.42;50.64;101124.59;5094341;28;20059;-49
2023/06/19 04:25:10;;;;;;;5.38;4.88;;;;;;;26.42;50.79;101125.44;5094482;28;20060;-46
2023/06/19 04:27:37;;;;;;;5.45;4.85;;;;;;;26.41;51.00;101123.72;5094658;28;20416;-46
2023/06/19 04:30:06;;;;;;;5.53;4.97;;;;;;;26.42;51.02;101127.31;5095363;28;20051;-47
2023/06/19 04:32:47;;;;;;;6.05;5.43;;;;;;;26.42;50.99;101130.88;5095924;28;20056;-56
2023/06/19 04:35:15;;;;;;;5.43;4.93;;;;;;;26.42;50.85;101128.16;5095220;28;20398;-56
2023/06/19 04:37:42;;;;;;;5.35;4.85;;;;;;;26.41;50.82;101122.88;5095242;28;20044;-56
2023/06/19 04:40:10;;;;;;;6.28;5.68;;;;;;;26.41;51.02;101121.00;5094753;28;20036;-58
2023/06/19 04:42:38;;;;;;;5.90;5.30;;;;;;;26.41;51.26;101120.16;5094728;28;20048;-50
2023/06/19 04:45:07;;;;;;;6.03;5.03;;;;;;;26.41;51.02;101125.59;5093886;28;20040;-48
2023/06/19 04:47:35;;;;;;;5.90;5.30;;;;;;;26.41;51.09;101126.44;5093713;28;20102;-48
2023/06/19 04:50:19;;;;;;;6.50;5.55;;;;;;;26.39;51.18;101123.91;5093627;28;20389;-58
2023/06/19 04:52:50;;;;;;;6.90;5.03;;;;;;;26.41;51.14;101118.28;5095226;28;20040;-57
2023/06/19 04:55:18;;;;;;;5.28;4.78;;;;;;;26.41;51.16;101117.44;5094861;28;20059;-48
2023/06/19 04:57:45;;;;;;;5.55;4.88;;;;;;;26.41;51.22;101114.72;5095361;28;20051;-48
2023/06/19 05:00:14;;;;;;;5.13;4.63;;;;;;;26.39;51.34;101118.47;5094996;28;20415;-50
2023/06/19 05:02:44;;;;;;;5.38;4.65;;;;;;;26.39;51.38;101118.47;5094772;28;20523;-47
2023/06/19 05:05:12;;;;;;;5.53;4.57;;;;;;;26.41;51.31;101112.03;5094675;28;20048;-50
2023/06/19 05:07:40;;;;;;;4.97;4.47;;;;;;;26.39;51.32;101114.91;5093585;28;20051;-51
2023/06/19 05:10:08;;;;;;;6.03;4.97;;;;;;;26.40;51.37;101116.59;5093156;28;20476;-52
2023/06/19 05:12:36;;;;;;;6.20;4.70;;;;;;;26.39;51.33;101118.47;5093705;28;20052;-48
2023/06/19 05:15:03;;;;;;;5.50;4.60;;;;;;;26.40;51.38;101124.75;5094417;28;20044;-49
2023/06/19 05:17:31;;;;;;;5.97;4.50;;;;;;;26.40;51.41;101122.03;5094828;28;20075;-47
2023/06/19 05:19:58;;;;;;;5.80;5.07;;;;;;;26.39;51.33;101113.03;5094480;28;20052;-47
2023/06/19 05:22:26;;;;;;;5.65;4.97;;;;;;;26.40;51.53;101113.88;5094543;28;20044;-50
2023/06/19 05:24:54;;;;;;;5.75;4.63;;;;;;;26.41;51.53;101120.16;5094369;28;20040;-47
2023/06/19 05:27:21;;;;;;;5.82;4.75;;;;;;;26.39;51.50;101121.19;5094324;28;20040;-47
2023/06/19 05:29:48;;;;;;;5.30;4.43;;;;;;;26.41;51.49;101122.88;5094115;28;20048;-48
2023/06/19 05:32:16;;;;;;;5.75;5.15;;;;;;;26.39;51.41;101128.50;5094056;28;20048;-51
2023/06/19 05:34:43;;;;;;;5.07;4.57;;;;;;;26.40;51.41;101132.91;5093638;28;20416;-48
2023/06/19 05:37:10;;;;;;;5.07;4.57;;;;;;;26.41;51.56;101131.88;5094115;28;20055;-47
2023/06/19 05:39:38;;;;;;;6.57;4.80;;;;;;;26.40;51.46;101132.91;5094168;28;20044;-46
2023/06/19 05:42:06;;;;;;;6.50;4.95;;;;;;;26.40;51.31;101127.47;5094077;28;20396;-57
2023/06/19 05:44:33;;;;;;;5.60;4.80;;;;;;;26.41;51.67;101125.59;5094409;28;20048;-57
2023/06/19 05:47:01;;;;;;;5.78;4.95;;;;;;;26.41;51.62;101123.72;5094113;28;20052;-57
2023/06/19 05:49:29;;;;;;;5.57;4.90;;;;;;;26.40;51.74;101113.88;5093885;28;20063;-58
2023/06/19 05:51:58;;;;;;;5.55;4.97;;;;;;;26.41;51.87;101112.03;5094218;28;20059;-47
2023/06/19 05:54:27;;;;;;;4.75;4.15;;;;;;;26.41;51.81;101117.44;5094022;28;20047;-48
2023/06/19 05:56:54;;;;;;;5.85;5.18;;;;;;;26.41;51.90;101114.72;5093877;28;20052;-48
2023/06/19 05:59:21;;;;;;;6.60;5.13;;;;;;;26.41;51.92;101112.03;5093874;28;20044;-47
2023/06/19 06:01:50;;;;;;;5.13;4.60;;;;;;;26.40;52.01;101103.03;5094023;28;20071;-46
2023/06/19 06:04:18;;;;;;;5.28;4.78;;;;;;;26.41;51.91;101112.03;5093743;28;20048;-47
2023/06/19 06:06:45;;;;;;;4.78;4.25;;;;;;;26.40;51.94;101108.47;5093725;28;20062;-46
2023/06/19 06:09:14;;;;;;;5.45;4.88;;;;;;;26.41;51.84;101107.44;5093758;28;20048;-48
2023/06/19 06:11:42;;;;;;;5.32;4.60;;;;;;;26.41;52.03;101106.59;5093734;28;20040;-57
2023/06/19 06:14:09;;;;;;;8.02;5.32;;;;;;;26.41;52.23;101107.44;5093916;28;20480;-58
2023/06/19 06:16:39;;;;;;;4.80;4.10;;;;;;;26.41;52.10;101114.72;5094005;28;20040;-57
2023/06/19 06:19:07;;;;;;;5.28;4.60;;;;;;;26.42;52.23;101105.59;5093622;28;20040;-57
2023/06/19 06:21:34;;;;;;;5.68;4.47;;;;;;;26.42;52.16;101114.59;5093586;28;20036;-47
2023/06/19 06:24:02;;;;;;;5.88;4.70;;;;;;;26.42;52.39;101111.03;5092512;28;20040;-47
2023/06/19 06:26:30;;;;;;;5.88;4.97;;;;;;;26.42;52.28;101119.16;5093552;28;20399;-50
2023/06/19 06:28:57;;;;;;;5.00;4.50;;;;;;;26.41;52.29;101120.16;5093485;28;20123;-49
2023/06/19 06:31:24;;;;;;;6.15;5.57;;;;;;;26.42;52.36;101117.28;5093916;28;20048;-57
2023/06/19 06:33:52;;;;;;;5.60;4.75;;;;;;;26.41;52.57;101118.28;5093520;28;20040;-57
2023/06/19 06:36:19;;;;;;;5.63;4.82;;;;;;;26.42;52.39;101124.59;5093482;28;20051;-58
2023/06/19 06:39:02;;;;;;;6.03;5.03;;;;;;;26.42;52.60;101113.75;5093440;28;20088;-58
2023/06/19 06:41:30;;;;;;;7.13;4.68;;;;;;;26.42;52.63;101117.28;5093393;28;20040;-57
2023/06/19 06:43:57;;;;;;;5.90;5.10;;;;;;;26.43;52.53;101126.28;5093501;28;20048;-55
2023/06/19 06:46:25;;;;;;;5.93;4.97;;;;;;;26.45;52.80;101129.69;5084641;28;20048;-51
2023/06/19 06:48:52;;;;;;;6.13;5.38;;;;;;;26.47;52.89;101133.94;5073942;28;20050;-56
2023/06/19 06:51:22;;;;;;;6.82;5.40;;;;;;;26.50;52.75;101138.19;5076526;28;20052;-51
2023/06/19 06:53:50;;;;;;;5.95;4.82;;;;;;;26.51;52.66;101135.28;5081270;28;20044;-51
2023/06/19 06:56:18;;;;;;;5.53;5.03;;;;;;;26.49;52.70;101134.59;5097158;28;20048;-51
2023/06/19 06:58:48;;;;;;;5.13;4.60;;;;;;;26.50;52.76;101128.19;5097060;28;20040;-53
2023/06/19 07:01:15;;;;;;;5.35;4.70;;;;;;;26.49;52.79;101121.03;5097406;28;20047;-53
2023/06/19 07:03:43;;;;;;;5.78;4.68;;;;;;;26.50;52.93;101130.03;5095830;28;20044;-54
2023/06/19 07:06:10;;;;;;;5.97;4.43;;;;;;;26.54;53.12;101128.69;5096925;28;20067;-54
2023/06/19 07:08:40;;;;;;;7.38;5.38;;;;;;;26.57;53.06;101134.59;5095847;28;20044;-57
2023/06/19 07:11:08;;;;;;;6.00;4.70;;;;;;;26.60;53.15;101134.25;5096109;28;20044;-51
2023/06/19 07:13:35;;;;;;;5.47;4.78;;;;;;;26.62;53.39;101132.22;5096640;28;20043;-53
2023/06/19 07:16:04;;;;;;;6.85;5.55;;;;;;;26.63;53.46;101133.91;5087760;28;20086;-56
2023/06/19 07:18:33;;;;;;;6.40;5.70;;;;;;;26.65;53.61;101131.00;5076582;28;20063;-56
2023/06/19 07:21:02;;;;;;;5.65;5.05;;;;;;;26.66;53.65;101132.72;5067395;28;20047;-57
2023/06/19 07:23:30;;;;;;;5.30;4.72;;;;;;;26.67;53.39;101139.00;5096272;28;20055;-56
2023/06/19 07:25:57;;;;;;;5.32;4.78;;;;;;;26.67;53.43;101134.41;5096120;28;20032;-54
2023/06/19 07:28:24;;;;;;;7.03;4.95;;;;;;;26.68;53.18;101138.81;5095831;28;20063;-57
2023/06/19 07:30:52;;;;;;;5.43;4.55;;;;;;;26.69;52.93;101137.78;5096137;28;20059;-58
2023/06/19 07:33:19;;;;;;;5.57;4.85;;;;;;;26.69;52.67;101131.53;5095255;28;20046;-57
2023/06/19 07:35:47;;;;;;;5.53;4.93;;;;;;;26.69;52.13;101126.09;5095848;28;20040;-57
2023/06/19 07:38:16;;;;;;;5.30;4.75;;;;;;;26.68;51.42;101137.97;5095430;28;20102;-59
2023/06/19 07:40:43;;;;;;;5.60;4.53;;;;;;;26.67;51.31;101133.56;5091192;28;20040;-58
2023/06/19 07:43:11;;;;;;;8.85;5.05;;;;;;;26.66;51.52;101132.72;5075050;28;20165;-58
2023/06/19 07:45:38;;;;;;;5.15;4.63;;;;;;;26.67;51.68;101131.69;5075920;28;20045;-55
2023/06/19 07:48:06;;;;;;;6.80;4.65;;;;;;;26.70;51.65;101135.91;5075997;28;20052;-56
2023/06/19 07:50:33;;;;;;;5.55;4.93;;;;;;;26.69;51.02;101126.09;5075687;28;20051;-54
2023/06/19 07:53:00;;;;;;;5.95;5.07;;;;;;;26.67;50.33;101122.72;5075830;28;20075;-49
2023/06/19 07:55:28;;;;;;;4.90;4.43;;;;;;;26.69;50.49;101131.53;5075833;28;20418;-54
2023/06/19 07:57:56;;;;;;;5.85;4.40;;;;;;;26.71;50.92;101121.34;5074900;28;20049;-51
2023/06/19 08:00:24;;;;;;;5.35;4.38;;;;;;;26.72;50.71;101115.72;5075661;28;20045;-55
2023/06/19 08:02:52;;;;;;;5.70;4.18;;;;;;;26.72;49.42;101115.72;5075528;28;20388;-54
2023/06/19 08:05:20;;;;;;;5.80;4.75;;;;;;;26.71;48.74;101116.75;5075839;28;20048;-51
2023/06/19 08:07:48;;;;;;;5.20;4.28;;;;;;;26.73;49.12;101114.69;5075361;28;20047;-52
2023/06/19 08:10:15;;;;;;;4.82;4.03;;;;;;;26.73;48.33;101111.97;5075277;28;20052;-59
2023/06/19 08:12:43;;;;;;;5.45;4.65;;;;;;;26.71;47.55;101115.91;5075511;28;20047;-56
2023/06/19 08:15:13;;;;;;;5.45;3.88;;;;;;;26.70;47.13;101112.34;5075359;28;20056;-54
2023/06/19 08:17:41;;;;;;;6.15;4.43;;;;;;;26.68;46.75;101118.97;5075379;28;20057;-57
2023/06/19 08:20:09;;;;;;;7.05;4.90;;;;;;;26.69;46.60;101120.66;5075535;28;20056;-55
2023/06/19 08:22:37;;;;;;;6.85;4.78;;;;;;;26.67;46.85;101118.13;5075520;28;20048;-55
2023/06/19 08:25:05;;;;;;;8.23;4.78;;;;;;;26.66;46.73;101123.72;5075212;28;20055;-51
2023/06/19 08:27:32;;;;;;;4.88;4.13;;;;;;;26.65;46.56;101116.59;5075203;28;20048;-56
2023/06/19 08:30:00;;;;;;;6.55;4.63;;;;;;;26.64;46.76;101113.03;5074582;28;20274;-55
2023/06/19 08:32:27;;;;;;;6.18;4.57;;;;;;;26.63;47.11;101112.19;5073664;28;20404;-57
2023/06/19 08:34:55;;;;;;;4.93;3.70;;;;;;;26.66;47.05;101113.72;5074468;28;20036;-58
2023/06/19 08:37:22;;;;;;;5.03;4.28;;;;;;;26.68;46.83;101113.53;5074947;28;20056;-56
2023/06/19 08:39:49;;;;;;;5.97;4.70;;;;;;;26.68;46.67;101118.97;5074854;28;20045;-53
2023/06/19 08:42:17;;;;;;;4.82;4.05;;;;;;;26.70;46.53;101119.63;5074511;28;20044;-55
2023/06/19 08:44:45;;;;;;;5.32;4.47;;;;;;;26.71;46.74;101119.47;5074799;28;20500;-57
2023/06/19 08:47:12;;;;;;;4.82;4.30;;;;;;;26.72;46.52;101115.72;5074364;28;20044;-52
2023/06/19 08:49:40;;;;;;;5.20;4.65;;;;;;;26.71;46.38;101122.19;5074839;28;20051;-56
2023/06/19 08:52:08;;;;;;;5.55;4.95;;;;;;;26.71;45.95;101113.19;5074539;28;20044;-58
2023/06/19 08:54:43;;;;;;;7.13;5.00;;;;;;;26.70;45.57;101111.47;5074202;28;20381;-58
2023/06/19 08:57:14;;;;;;;5.10;4.28;;;;;;;26.70;45.74;101117.78;5074515;28;20045;-57
2023/06/19 08:59:51;;;;;;;5.22;4.38;;;;;;;26.73;45.95;101116.56;5074476;28;20048;-58
2023/06/19 09:02:19;;;;;;;5.65;4.72;;;;;;;26.73;45.92;101106.56;5074474;28;20036;-58
2023/06/19 09:04:47;;;;;;;4.72;4.25;;;;;;;26.74;45.73;101110.09;5074539;28;20119;-54
2023/06/19 09:07:14;;;;;;;5.38;4.78;;;;;;;26.73;45.56;101105.72;5074707;28;20049;-55
2023/06/19 09:09:48;;;;;;;5.40;4.90;;;;;;;26.74;45.72;101102.84;5071955;28;20052;-57
2023/06/19 09:12:17;;;;;;;7.15;4.38;;;;;;;26.74;45.09;101108.28;5073807;28;20053;-57
2023/06/19 09:14:54;;;;;;;5.05;4.55;;;;;;;26.75;44.68;101104.53;5072793;28;20079;-59
2023/06/19 09:17:21;;;;;;;4.95;4.47;;;;;;;26.76;44.54;101108.09;5074243;28;20060;-54
2023/06/19 09:19:55;;;;;;;5.05;4.55;;;;;;;26.78;44.38;101097.88;5073099;28;20044;-58
2023/06/19 09:22:25;;;;;;;4.43;4.03;;;;;;;26.76;44.37;101099.94;5073876;28;20059;-57
2023/06/19 09:24:52;;;;;;;4.68;4.20;;;;;;;26.76;44.26;101095.34;5073022;28;20045;-57
2023/06/19 09:27:20;;;;;;;4.93;4.43;;;;;;;26.76;44.54;101102.66;5072059;28;20060;-58
2023/06/19 09:29:50;;;;;;;5.50;4.18;;;;;;;26.75;44.45;101098.25;5073368;28;20056;-52
2023/06/19 09:32:21;;;;;;;5.63;4.55;;;;;;;26.76;44.20;101097.22;5073427;28;20056;-58
2023/06/19 09:34:52;;;;;;;4.93;4.22;;;;;;;26.79;44.24;101094.16;5089441;28;20063;-57
2023/06/19 09:37:25;;;;;;;5.18;4.50;;;;;;;26.82;43.81;101093.81;5073502;28;20415;-54
2023/06/19 09:39:58;;;;;;;6.22;4.70;;;;;;;26.84;43.84;101108.06;5072200;28;20052;-57
2023/06/19 09:42:35;;;;;;;;;;;;;;;26.84;44.09;101110.78;5073520;28;20043;-57
2023/06/19 09:45:15;;;;;;;6.35;4.55;;;;;;;26.86;47.79;101106.03;5073038;28;19927;-57
2023/06/19 09:47:46;;;;;;;7.25;5.10;;;;;;;26.85;49.13;101107.88;5073359;28;20055;-58
2023/06/19 09:50:17;;;;;;;5.78;4.32;;;;;;;26.85;50.10;101105.16;5073405;28;20467;-57
2023/06/19 09:52:51;;;;;;;5.90;4.95;;;;;;;26.82;49.88;101101.97;5072573;28;20056;-55
2023/06/19 09:55:19;;;;;;;4.78;4.30;;;;;;;26.80;48.95;101107.56;5073411;28;20044;-54
2023/06/19 09:57:48;;;;;;;6.10;4.80;;;;;;;26.78;48.02;101109.63;5073479;28;20059;-53
2023/06/19 10:00:21;;;;;;;5.85;4.75;;;;;;;26.77;47.54;101113.31;5072918;28;20496;-54
2023/06/19 10:02:50;;;;;;;6.60;4.70;;;;;;;26.76;47.75;101108.09;5073282;28;20373;-54
2023/06/19 10:05:28;;;;;;;5.65;4.93;;;;;;;26.73;47.77;101106.56;5072216;28;20052;-51
2023/06/19 10:07:59;;;;;;;6.05;4.90;;;;;;;26.73;48.25;101105.72;5073534;28;20512;-55
2023/06/19 10:10:28;;;;;;;6.53;4.70;;;;;;;26.71;48.73;101097.75;5072418;28;20056;-55
2023/06/19 10:13:11;;;;;;;5.07;4.57;;;;;;;26.70;49.07;101098.78;5073515;28;20040;-54
2023/06/19 10:15:43;;;;;;;5.45;4.78;;;;;;;26.71;50.19;101105.06;5073337;28;20432;-49
2023/06/19 10:18:16;;;;;;;5.88;4.88;;;;;;;26.71;50.54;101100.47;5072958;28;20377;-49
2023/06/19 10:20:44;;;;;;;;;;;;;;;26.70;50.74;101101.50;5073628;28;20107;-50
2023/06/19 10:23:18;;;;;;;5.47;4.75;;;;;;;26.75;50.75;101111.81;5071778;28;19920;-47
2023/06/19 10:25:58;;;;;;;6.45;5.03;;;;;;;26.75;51.54;101106.41;5073309;28;20041;-47
2023/06/19 10:28:30;;;;;;;6.60;4.60;;;;;;;26.76;51.00;101100.78;5072760;28;20056;-48
2023/06/19 10:31:05;;;;;;;5.22;4.30;;;;;;;26.78;49.93;101108.75;5073244;28;20049;-57
2023/06/19 10:33:36;;;;;;;5.10;4.45;;;;;;;26.77;49.40;101101.63;5072951;28;20405;-57
2023/06/19 10:36:17;;;;;;;5.22;4.57;;;;;;;26.78;50.16;101112.34;5073110;28;20504;-57
2023/06/19 10:38:47;;;;;;;5.10;4.30;;;;;;;26.77;50.54;101105.19;5073031;28;20429;-58
2023/06/19 10:41:22;;;;;;;4.78;4.28;;;;;;;26.78;51.22;101101.47;5073327;28;20048;-57
2023/06/19 10:43:58;;;;;;;4.50;4.10;;;;;;;26.77;51.96;101099.75;5072944;28;20041;-50
2023/06/19 10:46:33;;;;;;;5.15;4.65;;;;;;;26.75;51.49;101098.25;5072229;28;20067;-56
2023/06/19 10:49:04;;;;;;;4.82;4.32;;;;;;;26.74;51.53;101099.25;5072787;28;20045;-54
2023/06/19 10:51:34;;;;;;;4.97;4.47;;;;;;;26.74;51.89;101099.25;5072804;28;20056;-56
2023/06/19 10:54:02;;;;;;;6.32;4.90;;;;;;;26.74;52.27;101091.97;5072720;28;20040;-56
2023/06/19 10:56:30;;;;;;;5.68;4.65;;;;;;;26.74;51.88;101091.09;5072587;28;20044;-51
2023/06/19 10:59:05;;;;;;;5.00;4.22;;;;;;;26.74;51.84;101088.38;5072791;28;20045;-50
2023/06/19 11:01:38;;;;;;;6.60;4.82;;;;;;;26.73;51.81;101092.13;5072880;28;20049;-49
2023/06/19 11:04:07;;;;;;;5.40;4.90;;;;;;;26.73;52.33;101090.25;5073052;28;20048;-50
2023/06/19 11:06:36;;;;;;;5.03;4.53;;;;;;;26.73;53.12;101089.41;5072713;28;20052;-50
2023/06/19 11:09:05;;;;;;;5.10;4.57;;;;;;;26.73;53.88;101084.81;5072712;28;20049;-52
2023/06/19 11:11:36;;;;;;;6.20;4.63;;;;;;;26.74;53.93;101082.94;5072782;28;20049;-56
2023/06/19 11:14:04;;;;;;;5.05;4.50;;;;;;;26.72;53.78;101087.72;5072644;28;20041;-50
2023/06/19 11:16:33;;;;;;;5.47;4.60;;;;;;;26.72;54.14;101087.72;5072644;28;20053;-55
2023/06/19 11:19:01;;;;;;;5.13;4.63;;;;;;;26.70;52.75;101082.47;5072798;28;20048;-50
2023/06/19 11:21:36;;;;;;;6.35;5.40;;;;;;;26.70;52.00;101085.19;5072806;28;20044;-55
2023/06/19 11:24:06;;;;;;;4.95;4.40;;;;;;;26.71;52.86;101084.16;5072683;28;20497;-57
2023/06/19 11:26:37;;;;;;;5.28;4.78;;;;;;;26.72;53.58;101083.13;5072126;28;20154;-58
2023/06/19 11:29:22;;;;;;;7.07;4.80;;;;;;;26.73;52.82;101083.97;5072374;28;20374;-59
2023/06/19 11:31:51;;;;;;;6.22;4.72;;;;;;;26.76;52.56;101080.91;5071386;28;20044;-60
2023/06/19 11:34:18;;;;;;;5.95;5.35;;;;;;;26.77;51.89;101074.47;5075854;28;20049;-59
2023/06/19 11:36:53;;;;;;;6.03;5.43;;;;;;;26.80;50.06;101072.25;5075625;28;20400;-59